Time;durP1;ratioP1;P1;durP2;ratioP2;P2;SDS_P1;SDS_P2;PMS_P1;PMS_P2;Temp;Humidity;BMP_temperature;BMP_pressure;BME280_temperature;BME280_humidity;BME280_pressure;Samples;Min_cycle;Max_cycle;Signal;HPM_P1;HPM_P2
2023/12/17 00:00:47;;;;;;;14.32;11.15;;;;;;;;;;5013996;28;20210;-73
2023/12/17 00:03:12;;;;;;;14.73;10.27;;;;;;;;;;5019257;28;20252;-73
2023/12/17 00:05:38;;;;;;;13.05;9.55;;;;;;;;;;5020133;28;20195;-73
2023/12/17 00:08:03;;;;;;;14.43;10.07;;;;;;;;;;4997827;28;20179;-73
2023/12/17 00:10:29;;;;;;;12.82;9.52;;;;;;;;;;5024742;28;20657;-73
2023/12/17 00:12:55;;;;;;;13.77;8.93;;;;;;;;;;5019247;28;20241;-72
2023/12/17 00:15:20;;;;;;;16.75;9.07;;;;;;;;;;5017553;28;20202;-73
2023/12/17 00:17:46;;;;;;;15.25;8.98;;;;;;;;;;5026568;28;20221;-73
2023/12/17 00:20:11;;;;;;;10.48;8.38;;;;;;;;;;5022781;28;20621;-73
2023/12/17 00:22:37;;;;;;;10.05;8.20;;;;;;;;;;4983550;28;20677;-72
2023/12/17 00:25:03;;;;;;;10.95;8.52;;;;;;;;;;5000369;28;20182;-73
2023/12/17 00:27:28;;;;;;;9.68;8.32;;;;;;;;;;5003823;28;20690;-73
2023/12/17 00:29:54;;;;;;;11.82;8.45;;;;;;;;;;5002475;28;20249;-73
2023/12/17 00:32:19;;;;;;;11.48;8.75;;;;;;;;;;4997402;28;20186;-73
2023/12/17 00:34:44;;;;;;;10.32;8.02;;;;;;;;;;5000762;28;20241;-73
2023/12/17 00:37:10;;;;;;;14.80;8.57;;;;;;;;;;5020115;28;20568;-73
2023/12/17 00:39:35;;;;;;;11.93;8.88;;;;;;;;;;5007242;28;20217;-73
2023/12/17 00:42:01;;;;;;;11.95;8.65;;;;;;;;;;5017979;28;20260;-73
2023/12/17 00:44:26;;;;;;;12.55;8.45;;;;;;;;;;5016810;28;20197;-73
2023/12/17 00:46:51;;;;;;;12.63;8.85;;;;;;;;;;5016440;28;20705;-73
2023/12/17 00:49:17;;;;;;;10.38;8.00;;;;;;;;;;5023864;28;20266;-72
2023/12/17 00:51:42;;;;;;;13.07;8.60;;;;;;;;;;5010962;28;20189;-73
2023/12/17 00:54:08;;;;;;;12.32;8.32;;;;;;;;;;5003689;28;20296;-73
2023/12/17 00:56:33;;;;;;;10.95;8.35;;;;;;;;;;5011381;28;20252;-73
2023/12/17 00:58:59;;;;;;;10.10;8.30;;;;;;;;;;5005054;28;20187;-72
2023/12/17 01:01:25;;;;;;;13.10;8.90;;;;;;;;;;4996723;28;20222;-72
2023/12/17 01:03:50;;;;;;;13.30;8.82;;;;;;;;;;5005462;28;20187;-73
2023/12/17 01:06:16;;;;;;;14.35;9.73;;;;;;;;;;4982403;28;20186;-73
2023/12/17 01:08:41;;;;;;;14.65;8.68;;;;;;;;;;5002223;28;20316;-73
2023/12/17 01:11:07;;;;;;;11.70;8.57;;;;;;;;;;5000829;28;20677;-73
2023/12/17 01:13:32;;;;;;;12.43;8.20;;;;;;;;;;5034852;28;20186;-73
2023/12/17 01:15:58;;;;;;;11.50;7.82;;;;;;;;;;5020090;28;20347;-73
2023/12/17 01:18:23;;;;;;;13.52;8.45;;;;;;;;;;5020223;28;20209;-73
2023/12/17 01:20:49;;;;;;;13.50;8.45;;;;;;;;;;5027873;28;20638;-73
2023/12/17 01:23:14;;;;;;;13.85;8.90;;;;;;;;;;5038340;28;20684;-73
2023/12/17 01:25:39;;;;;;;10.80;8.25;;;;;;;;;;5014923;28;20233;-75
2023/12/17 01:28:05;;;;;;;11.30;8.18;;;;;;;;;;5032465;28;20267;-73
2023/12/17 01:30:30;;;;;;;14.32;8.48;;;;;;;;;;5046146;28;20196;-73
2023/12/17 01:32:56;;;;;;;12.57;8.20;;;;;;;;;;5025245;28;20299;-73
2023/12/17 01:35:21;;;;;;;12.27;8.30;;;;;;;;;;5040934;28;20301;-73
2023/12/17 01:37:47;;;;;;;11.18;7.95;;;;;;;;;;5011851;28;20554;-73
2023/12/17 01:40:12;;;;;;;13.05;7.93;;;;;;;;;;5033239;28;20202;-73
2023/12/17 01:42:38;;;;;;;13.23;8.23;;;;;;;;;;5014476;28;20267;-74
2023/12/17 01:45:03;;;;;;;10.73;8.07;;;;;;;;;;5013333;28;20193;-75
2023/12/17 01:47:29;;;;;;;13.63;8.63;;;;;;;;;;5039824;28;20205;-73
2023/12/17 01:49:54;;;;;;;9.43;7.38;;;;;;;;;;5032271;28;20277;-73
2023/12/17 01:52:20;;;;;;;14.45;8.10;;;;;;;;;;5040874;28;20220;-73
2023/12/17 01:54:46;;;;;;;12.13;7.70;;;;;;;;;;5023368;28;20201;-73
2023/12/17 01:57:12;;;;;;;11.32;7.80;;;;;;;;;;5037639;28;20256;-73
2023/12/17 01:59:38;;;;;;;9.93;6.93;;;;;;;;;;5012488;28;20602;-73
2023/12/17 02:02:04;;;;;;;9.07;7.75;;;;;;;;;;5044778;28;20232;-73
2023/12/17 02:04:29;;;;;;;13.18;8.15;;;;;;;;;;5042127;28;20205;-73
2023/12/17 02:06:55;;;;;;;11.18;7.28;;;;;;;;;;5041376;28;20264;-73
2023/12/17 02:09:20;;;;;;;11.07;7.57;;;;;;;;;;5034826;28;20275;-73
2023/12/17 02:11:46;;;;;;;13.02;7.43;;;;;;;;;;5033332;28;20230;-73
2023/12/17 02:14:11;;;;;;;10.80;7.25;;;;;;;;;;5006875;28;20218;-72
2023/12/17 02:16:37;;;;;;;13.45;7.68;;;;;;;;;;5001777;28;20209;-73
2023/12/17 02:19:02;;;;;;;12.27;7.53;;;;;;;;;;5014968;28;20638;-72
2023/12/17 02:21:28;;;;;;;15.95;7.90;;;;;;;;;;5017297;28;20281;-73
2023/12/17 02:23:54;;;;;;;11.73;7.55;;;;;;;;;;5018992;28;20236;-73
2023/12/17 02:26:19;;;;;;;12.20;7.75;;;;;;;;;;5013444;28;20634;-73
2023/12/17 02:28:47;;;;;;;11.07;8.02;;;;;;;;;;5005665;28;20214;-72
2023/12/17 02:31:13;;;;;;;12.90;8.05;;;;;;;;;;5016081;28;20191;-72
2023/12/17 02:33:38;;;;;;;10.75;7.38;;;;;;;;;;5019185;28;20260;-72
2023/12/17 02:36:04;;;;;;;10.55;7.30;;;;;;;;;;5000990;28;20672;-72
2023/12/17 02:38:29;;;;;;;12.48;8.60;;;;;;;;;;5017668;28;20213;-72
2023/12/17 02:40:55;;;;;;;13.68;8.65;;;;;;;;;;4993220;28;20189;-72
2023/12/17 02:43:20;;;;;;;11.50;7.75;;;;;;;;;;5022793;28;20248;-73
2023/12/17 02:45:46;;;;;;;11.65;7.72;;;;;;;;;;5014793;28;20245;-73
2023/12/17 02:48:11;;;;;;;8.40;7.47;;;;;;;;;;5016934;28;20259;-72
2023/12/17 02:50:36;;;;;;;10.23;7.65;;;;;;;;;;5016576;28;20658;-72
2023/12/17 02:53:02;;;;;;;9.85;8.00;;;;;;;;;;5026012;28;20217;-72
2023/12/17 02:55:27;;;;;;;11.48;7.85;;;;;;;;;;5018721;28;20257;-72
2023/12/17 02:57:53;;;;;;;9.90;8.40;;;;;;;;;;5017487;28;20187;-72
2023/12/17 03:00:18;;;;;;;9.95;7.70;;;;;;;;;;5019725;28;20201;-72
2023/12/17 03:02:44;;;;;;;12.38;7.90;;;;;;;;;;5022425;28;20569;-72
2023/12/17 03:05:10;;;;;;;11.70;8.30;;;;;;;;;;5021173;28;20190;-72
2023/12/17 03:07:35;;;;;;;10.35;8.07;;;;;;;;;;5017150;28;20190;-72
2023/12/17 03:10:02;;;;;;;13.13;7.65;;;;;;;;;;5014911;28;20681;-72
2023/12/17 03:12:27;;;;;;;9.40;7.60;;;;;;;;;;5019559;28;20218;-72
2023/12/17 03:14:53;;;;;;;11.00;7.60;;;;;;;;;;5020869;28;20209;-73
2023/12/17 03:17:18;;;;;;;12.80;7.68;;;;;;;;;;5021303;28;20202;-72
2023/12/17 03:19:44;;;;;;;11.13;7.40;;;;;;;;;;5014101;28;20386;-72
2023/12/17 03:22:09;;;;;;;12.98;8.35;;;;;;;;;;5016250;28;20195;-73
2023/12/17 03:24:34;;;;;;;10.80;7.72;;;;;;;;;;5020495;28;20197;-73
2023/12/17 03:27:00;;;;;;;10.32;7.32;;;;;;;;;;5009646;28;20190;-73
2023/12/17 03:29:25;;;;;;;10.88;8.13;;;;;;;;;;5015294;28;20273;-74
2023/12/17 03:31:51;;;;;;;10.85;8.00;;;;;;;;;;5010727;28;20273;-74
2023/12/17 03:34:16;;;;;;;10.07;7.63;;;;;;;;;;5017903;28;20220;-73
2023/12/17 03:36:41;;;;;;;11.63;7.65;;;;;;;;;;5017124;28;20250;-73
2023/12/17 03:39:07;;;;;;;14.02;7.72;;;;;;;;;;4995351;28;20197;-73
2023/12/17 03:41:33;;;;;;;12.90;8.57;;;;;;;;;;5022220;28;20202;-75
2023/12/17 03:43:58;;;;;;;10.30;7.68;;;;;;;;;;5005661;28;20224;-73
2023/12/17 03:46:25;;;;;;;9.82;7.05;;;;;;;;;;5015625;28;20560;-73
2023/12/17 03:48:50;;;;;;;9.85;6.78;;;;;;;;;;4996093;28;20682;-75
2023/12/17 03:51:16;;;;;;;10.65;7.03;;;;;;;;;;5009938;28;20182;-73
2023/12/17 03:53:42;;;;;;;9.65;6.93;;;;;;;;;;5022836;28;20269;-73
2023/12/17 03:56:09;;;;;;;11.35;7.03;;;;;;;;;;5017890;28;20619;-73
2023/12/17 03:58:35;;;;;;;9.80;6.53;;;;;;;;;;5018936;28;20200;-75
2023/12/17 04:01:01;;;;;;;10.93;6.63;;;;;;;;;;4992588;28;20182;-73
2023/12/17 04:03:27;;;;;;;11.73;6.88;;;;;;;;;;5016793;28;20190;-73
2023/12/17 04:05:52;;;;;;;9.30;7.03;;;;;;;;;;5018159;28;20201;-73
2023/12/17 04:08:18;;;;;;;9.50;6.60;;;;;;;;;;5000452;28;20200;-73
2023/12/17 04:10:43;;;;;;;9.80;6.95;;;;;;;;;;5015050;28;20265;-73
2023/12/17 04:13:09;;;;;;;11.15;7.15;;;;;;;;;;5035735;28;20238;-73
2023/12/17 04:15:34;;;;;;;10.48;6.88;;;;;;;;;;5032710;28;20693;-73
2023/12/17 04:18:00;;;;;;;11.32;7.22;;;;;;;;;;5025863;28;20210;-72
2023/12/17 04:20:25;;;;;;;10.73;6.53;;;;;;;;;;5030936;28;20258;-72
2023/12/17 04:22:50;;;;;;;9.05;7.07;;;;;;;;;;5037245;28;20534;-72
2023/12/17 04:25:16;;;;;;;8.00;6.65;;;;;;;;;;5035636;28;20653;-72
2023/12/17 04:27:41;;;;;;;10.02;6.60;;;;;;;;;;5033215;28;20182;-72
2023/12/17 04:30:07;;;;;;;8.82;6.45;;;;;;;;;;5043309;28;20219;-72
2023/12/17 04:32:32;;;;;;;9.65;6.78;;;;;;;;;;5028832;28;20190;-72
2023/12/17 04:34:58;;;;;;;10.35;6.93;;;;;;;;;;5042901;28;20683;-72
2023/12/17 04:37:23;;;;;;;11.65;7.20;;;;;;;;;;5038442;28;20197;-72
2023/12/17 04:39:49;;;;;;;9.75;7.03;;;;;;;;;;5039095;28;20272;-72
2023/12/17 04:42:16;;;;;;;8.48;6.85;;;;;;;;;;5035418;28;20705;-72
2023/12/17 04:44:41;;;;;;;9.82;7.30;;;;;;;;;;5042964;28;20886;-73
2023/12/17 04:47:07;;;;;;;12.50;6.53;;;;;;;;;;5040861;28;20208;-73
2023/12/17 04:49:32;;;;;;;9.85;7.20;;;;;;;;;;5033195;28;20198;-73
2023/12/17 04:51:57;;;;;;;12.07;6.45;;;;;;;;;;5041051;28;20189;-74
2023/12/17 04:54:24;;;;;;;8.93;6.13;;;;;;;;;;5035073;28;20213;-73
2023/12/17 04:56:49;;;;;;;9.23;6.20;;;;;;;;;;5036744;28;20228;-72
2023/12/17 04:59:15;;;;;;;9.05;6.10;;;;;;;;;;5039501;28;20185;-72
2023/12/17 05:01:40;;;;;;;8.13;6.18;;;;;;;;;;5043136;28;20240;-72
2023/12/17 05:04:05;;;;;;;6.78;5.63;;;;;;;;;;5038929;28;20229;-72
2023/12/17 05:06:31;;;;;;;7.88;6.05;;;;;;;;;;5042965;28;20208;-73
2023/12/17 05:08:56;;;;;;;8.45;6.10;;;;;;;;;;5041154;28;20208;-73
2023/12/17 05:11:21;;;;;;;8.02;5.60;;;;;;;;;;5040258;28;20225;-72
2023/12/17 05:13:47;;;;;;;7.18;5.95;;;;;;;;;;5023766;28;20198;-72
2023/12/17 05:16:12;;;;;;;8.63;5.68;;;;;;;;;;5018262;28;20277;-72
2023/12/17 05:18:38;;;;;;;9.45;6.28;;;;;;;;;;5008224;28;20204;-72
2023/12/17 05:21:04;;;;;;;8.60;5.72;;;;;;;;;;5018693;28;20196;-72
2023/12/17 05:23:29;;;;;;;11.25;6.18;;;;;;;;;;5028239;28;20533;-74
2023/12/17 05:25:55;;;;;;;9.32;5.38;;;;;;;;;;5018040;28;20228;-73
2023/12/17 05:28:20;;;;;;;9.63;4.95;;;;;;;;;;5017413;28;20309;-72
2023/12/17 05:30:46;;;;;;;8.23;5.00;;;;;;;;;;5016193;28;20622;-73
2023/12/17 05:33:12;;;;;;;9.23;5.20;;;;;;;;;;5015259;28;20650;-72
2023/12/17 05:35:37;;;;;;;11.75;5.40;;;;;;;;;;5003259;28;20286;-73
2023/12/17 05:38:03;;;;;;;10.48;5.25;;;;;;;;;;5018701;28;20249;-73
2023/12/17 05:40:28;;;;;;;8.25;5.47;;;;;;;;;;5007989;28;20190;-72
2023/12/17 05:42:53;;;;;;;11.80;5.80;;;;;;;;;;5005140;28;20237;-73
2023/12/17 05:45:19;;;;;;;10.95;5.50;;;;;;;;;;5015858;28;20210;-72
2023/12/17 05:47:46;;;;;;;10.40;5.93;;;;;;;;;;4999773;28;20190;-72
2023/12/17 05:50:11;;;;;;;9.10;5.05;;;;;;;;;;4994055;28;20557;-73
2023/12/17 05:52:37;;;;;;;10.43;5.72;;;;;;;;;;5004309;28;20193;-72
2023/12/17 05:55:03;;;;;;;11.77;5.88;;;;;;;;;;5021407;28;20225;-72
2023/12/17 05:57:29;;;;;;;12.90;6.10;;;;;;;;;;5008628;28;20182;-73
2023/12/17 05:59:54;;;;;;;11.18;5.93;;;;;;;;;;5021074;28;20247;-72
2023/12/17 06:02:20;;;;;;;10.35;5.60;;;;;;;;;;5017097;28;20599;-72
2023/12/17 06:04:45;;;;;;;9.77;5.47;;;;;;;;;;5010735;28;20192;-72
2023/12/17 06:07:11;;;;;;;10.43;6.03;;;;;;;;;;4993523;28;22955;-72
2023/12/17 06:09:36;;;;;;;11.00;6.00;;;;;;;;;;5004033;28;20206;-72
2023/12/17 06:12:02;;;;;;;10.88;5.50;;;;;;;;;;5018892;28;20568;-73
2023/12/17 06:14:30;;;;;;;9.80;5.35;;;;;;;;;;5034762;28;20295;-72
2023/12/17 06:16:55;;;;;;;12.43;4.95;;;;;;;;;;5040984;28;20182;-72
2023/12/17 06:19:21;;;;;;;6.72;4.47;;;;;;;;;;5032354;28;20213;-72
2023/12/17 06:21:46;;;;;;;6.13;3.20;;;;;;;;;;5048985;28;20198;-72
2023/12/17 06:24:13;;;;;;;7.15;3.13;;;;;;;;;;5036533;28;20186;-72
2023/12/17 06:26:38;;;;;;;6.03;2.78;;;;;;;;;;5045387;28;20205;-72
2023/12/17 06:29:04;;;;;;;3.83;2.75;;;;;;;;;;5044327;28;20584;-72
2023/12/17 06:31:30;;;;;;;5.82;2.70;;;;;;;;;;5038328;28;20221;-73
2023/12/17 06:33:56;;;;;;;3.88;2.58;;;;;;;;;;5037370;28;20605;-73
2023/12/17 06:36:22;;;;;;;4.43;2.47;;;;;;;;;;5031882;28;20185;-72
2023/12/17 06:38:48;;;;;;;5.72;3.20;;;;;;;;;;5043361;28;20735;-73
2023/12/17 06:41:13;;;;;;;9.55;3.80;;;;;;;;;;5041892;28;20197;-72
2023/12/17 06:43:39;;;;;;;6.15;4.07;;;;;;;;;;5034662;28;20192;-73
2023/12/17 06:46:06;;;;;;;8.05;3.67;;;;;;;;;;5031308;28;20231;-72
2023/12/17 06:48:33;;;;;;;7.43;4.80;;;;;;;;;;5040448;28;20281;-72
2023/12/17 06:51:00;;;;;;;7.53;4.43;;;;;;;;;;5043856;28;20250;-72
2023/12/17 06:53:25;;;;;;;5.10;4.03;;;;;;;;;;5041114;28;20186;-72
2023/12/17 06:55:51;;;;;;;9.68;5.28;;;;;;;;;;5038065;28;20707;-71
2023/12/17 06:58:16;;;;;;;10.52;5.78;;;;;;;;;;5034148;28;20186;-71
2023/12/17 07:00:42;;;;;;;10.43;6.63;;;;;;;;;;5041741;28;20190;-73
2023/12/17 07:03:07;;;;;;;9.23;5.85;;;;;;;;;;5045826;28;20189;-72
2023/12/17 07:05:32;;;;;;;12.63;7.10;;;;;;;;;;5046994;28;20260;-72
2023/12/17 07:07:58;;;;;;;10.77;7.13;;;;;;;;;;5040257;28;20182;-73
2023/12/17 07:10:23;;;;;;;11.05;7.93;;;;;;;;;;5034731;28;20209;-72
2023/12/17 07:12:49;;;;;;;13.43;8.02;;;;;;;;;;5023937;28;20279;-73
2023/12/17 07:15:14;;;;;;;15.30;9.00;;;;;;;;;;5018847;28;20474;-72
2023/12/17 07:17:39;;;;;;;14.13;9.27;;;;;;;;;;5007268;28;20513;-72
2023/12/17 07:20:08;;;;;;;16.45;10.10;;;;;;;;;;5019092;28;20194;-72
2023/12/17 07:22:34;;;;;;;17.33;10.98;;;;;;;;;;5001278;28;20182;-72
2023/12/17 07:24:59;;;;;;;22.20;11.73;;;;;;;;;;5006429;28;20177;-73
2023/12/17 07:27:25;;;;;;;20.25;12.30;;;;;;;;;;5011571;28;20697;-74
2023/12/17 07:29:50;;;;;;;19.02;12.23;;;;;;;;;;5022272;28;20193;-72
2023/12/17 07:32:15;;;;;;;20.48;13.98;;;;;;;;;;5019714;28;20669;-72
2023/12/17 07:34:41;;;;;;;23.38;15.40;;;;;;;;;;5015281;28;20357;-72
2023/12/17 07:37:06;;;;;;;23.73;14.55;;;;;;;;;;4995954;28;20277;-73
2023/12/17 07:39:32;;;;;;;25.88;15.82;;;;;;;;;;5000052;28;20552;-72
2023/12/17 07:41:57;;;;;;;25.73;15.00;;;;;;;;;;4993754;28;20606;-72
2023/12/17 07:44:25;;;;;;;27.83;16.08;;;;;;;;;;5014983;28;20193;-72
2023/12/17 07:46:51;;;;;;;24.98;15.57;;;;;;;;;;5003096;28;20249;-72
2023/12/17 07:49:16;;;;;;;26.63;16.30;;;;;;;;;;5017620;28;20194;-72
2023/12/17 07:51:43;;;;;;;27.67;16.63;;;;;;;;;;5022805;28;20182;-72
2023/12/17 07:54:08;;;;;;;26.17;15.40;;;;;;;;;;4996164;28;20735;-72
2023/12/17 07:56:33;;;;;;;27.88;16.25;;;;;;;;;;5019872;28;20194;-74
2023/12/17 07:58:59;;;;;;;27.58;15.70;;;;;;;;;;5020191;28;20197;-72
2023/12/17 08:01:28;;;;;;;25.58;15.75;;;;;;;;;;5013753;28;20179;-73
2023/12/17 08:03:54;;;;;;;25.65;16.13;;;;;;;;;;4991652;28;20257;-73
2023/12/17 08:06:19;;;;;;;27.15;15.35;;;;;;;;;;5015434;28;20190;-72
2023/12/17 08:08:44;;;;;;;26.95;15.27;;;;;;;;;;5000919;28;20185;-72
2023/12/17 08:11:13;;;;;;;29.42;14.65;;;;;;;;;;5026632;28;20629;-74
2023/12/17 08:13:38;;;;;;;23.48;13.35;;;;;;;;;;5004347;28;20218;-73
2023/12/17 08:16:04;;;;;;;22.25;12.52;;;;;;;;;;4996833;28;20222;-72
2023/12/17 08:18:30;;;;;;;23.20;12.35;;;;;;;;;;5014168;28;20284;-72
2023/12/17 08:20:57;;;;;;;18.83;12.00;;;;;;;;;;5019108;28;20187;-75
2023/12/17 08:23:22;;;;;;;17.10;12.07;;;;;;;;;;4997075;28;20546;-71
2023/12/17 08:25:47;;;;;;;19.45;12.20;;;;;;;;;;5020852;28;20252;-73
2023/12/17 08:28:13;;;;;;;18.63;11.68;;;;;;;;;;4985219;28;20195;-73
2023/12/17 08:30:39;;;;;;;19.35;11.85;;;;;;;;;;5019599;28;20193;-74
2023/12/17 08:33:05;;;;;;;18.90;12.07;;;;;;;;;;5007723;28;20665;-74
2023/12/17 08:35:31;;;;;;;20.20;12.45;;;;;;;;;;5009364;28;20213;-74
2023/12/17 08:38:03;;;;;;;18.65;12.18;;;;;;;;;;5025586;28;20182;-75
2023/12/17 08:40:30;;;;;;;19.13;13.10;;;;;;;;;;5012100;28;20198;-74
2023/12/17 08:42:55;;;;;;;18.27;12.57;;;;;;;;;;5000889;28;20194;-76
2023/12/17 08:45:20;;;;;;;19.30;12.02;;;;;;;;;;5020996;28;20194;-74
2023/12/17 08:47:46;;;;;;;17.42;11.35;;;;;;;;;;4989897;28;20548;-74
2023/12/17 08:50:13;;;;;;;18.45;12.07;;;;;;;;;;5005324;28;20290;-74
2023/12/17 08:52:38;;;;;;;16.30;11.43;;;;;;;;;;5000738;28;20182;-74
2023/12/17 08:55:04;;;;;;;18.90;11.43;;;;;;;;;;5031847;28;20216;-74
2023/12/17 08:57:30;;;;;;;14.50;9.50;;;;;;;;;;5014421;28;20209;-75
2023/12/17 08:59:55;;;;;;;13.43;10.00;;;;;;;;;;5006505;28;20200;-75
2023/12/17 09:02:21;;;;;;;17.13;10.07;;;;;;;;;;5020002;28;20187;-74
2023/12/17 09:04:48;;;;;;;13.65;9.80;;;;;;;;;;5011583;28;20190;-74
2023/12/17 09:07:13;;;;;;;17.88;10.50;;;;;;;;;;4987652;28;20221;-74
2023/12/17 09:09:39;;;;;;;18.25;11.15;;;;;;;;;;4994489;28;20226;-74
2023/12/17 09:12:04;;;;;;;17.58;11.15;;;;;;;;;;4970532;28;20225;-73
2023/12/17 09:14:30;;;;;;;19.70;11.60;;;;;;;;;;5010999;28;20221;-74
2023/12/17 09:16:55;;;;;;;20.48;12.23;;;;;;;;;;5010229;28;20190;-74
2023/12/17 09:19:21;;;;;;;18.92;12.38;;;;;;;;;;5008538;28;20316;-74
2023/12/17 09:21:46;;;;;;;21.83;12.70;;;;;;;;;;5011155;28;20234;-73
2023/12/17 09:24:13;;;;;;;26.33;14.52;;;;;;;;;;5008961;28;20312;-74
2023/12/17 09:26:39;;;;;;;27.35;15.73;;;;;;;;;;4994259;28;20217;-75
2023/12/17 09:29:04;;;;;;;28.55;15.30;;;;;;;;;;5013529;28;20636;-74
2023/12/17 09:31:30;;;;;;;25.80;15.10;;;;;;;;;;5010750;28;20193;-76
2023/12/17 09:33:55;;;;;;;29.42;16.90;;;;;;;;;;5013559;28;20190;-73
2023/12/17 09:36:23;;;;;;;28.88;16.20;;;;;;;;;;5010598;28;20255;-73
2023/12/17 09:38:48;;;;;;;28.17;16.05;;;;;;;;;;5011340;28;20211;-73
2023/12/17 09:41:14;;;;;;;30.15;17.13;;;;;;;;;;5014007;28;20198;-72
2023/12/17 09:43:40;;;;;;;32.65;18.05;;;;;;;;;;4994769;28;20224;-73
2023/12/17 09:46:06;;;;;;;34.13;18.67;;;;;;;;;;5011721;28;20197;-73
2023/12/17 09:48:31;;;;;;;34.20;18.75;;;;;;;;;;5007841;28;20974;-73
2023/12/17 09:50:57;;;;;;;33.97;18.90;;;;;;;;;;5013140;28;20197;-74
2023/12/17 09:53:22;;;;;;;34.60;19.42;;;;;;;;;;4997157;28;20668;-74
2023/12/17 09:55:48;;;;;;;32.70;18.27;;;;;;;;;;5011419;28;20221;-72
2023/12/17 09:58:14;;;;;;;32.67;17.92;;;;;;;;;;5007773;28;20194;-75
2023/12/17 10:00:39;;;;;;;36.85;18.85;;;;;;;;;;5009239;28;20602;-74
2023/12/17 10:03:06;;;;;;;34.00;17.23;;;;;;;;;;5009140;28;20626;-73
2023/12/17 10:05:32;;;;;;;32.55;17.30;;;;;;;;;;5008950;28;20364;-73
2023/12/17 10:08:00;;;;;;;33.25;17.65;;;;;;;;;;5009771;28;20217;-73
2023/12/17 10:10:25;;;;;;;36.25;18.77;;;;;;;;;;5009312;28;20536;-73
2023/12/17 10:12:51;;;;;;;33.75;18.65;;;;;;;;;;5007441;28;20248;-73
2023/12/17 10:15:18;;;;;;;29.63;17.27;;;;;;;;;;4991798;28;21166;-73
2023/12/17 10:17:44;;;;;;;31.23;16.98;;;;;;;;;;5011232;28;20218;-75
2023/12/17 10:20:10;;;;;;;31.92;16.27;;;;;;;;;;5007958;28;20327;-74
2023/12/17 10:22:35;;;;;;;30.10;16.33;;;;;;;;;;5008278;28;20194;-73
2023/12/17 10:25:01;;;;;;;30.80;17.27;;;;;;;;;;5010028;28;20660;-77
2023/12/17 10:27:27;;;;;;;28.67;16.05;;;;;;;;;;5009303;28;20205;-73
2023/12/17 10:29:53;;;;;;;30.98;15.98;;;;;;;;;;5012006;28;20328;-73
2023/12/17 10:32:24;;;;;;;31.48;16.77;;;;;;;;;;5011716;28;20883;-74
2023/12/17 10:34:51;;;;;;;32.03;17.27;;;;;;;;;;5012420;28;20251;-75
2023/12/17 10:37:19;;;;;;;30.13;16.88;;;;;;;;;;5010689;28;20197;-75
2023/12/17 10:39:48;;;;;;;28.95;15.93;;;;;;;;;;5009069;28;20263;-74
2023/12/17 10:42:14;;;;;;;28.45;15.65;;;;;;;;;;5014043;28;20190;-75
2023/12/17 10:44:41;;;;;;;28.08;15.75;;;;;;;;;;4994147;28;20197;-74
2023/12/17 10:47:08;;;;;;;24.73;14.02;;;;;;;;;;5028552;28;20512;-74
2023/12/17 10:49:33;;;;;;;29.10;14.07;;;;;;;;;;5033111;28;20197;-73
2023/12/17 10:52:00;;;;;;;30.10;15.23;;;;;;;;;;5036146;28;20681;-74
2023/12/17 10:54:26;;;;;;;23.77;13.75;;;;;;;;;;5022196;28;20275;-74
2023/12/17 10:56:59;;;;;;;25.48;13.40;;;;;;;;;;5009279;28;20293;-73
2023/12/17 10:59:32;;;;;;;19.73;12.52;;;;;;;;;;4994543;28;20185;-73
2023/12/17 11:02:01;;;;;;;20.35;12.45;;;;;;;;;;5010775;28;20651;-75
2023/12/17 11:04:27;;;;;;;19.05;11.93;;;;;;;;;;5016764;28;20646;-76
2023/12/17 11:06:53;;;;;;;20.88;11.82;;;;;;;;;;5021324;28;20251;-75
2023/12/17 11:09:19;;;;;;;19.70;12.20;;;;;;;;;;5018008;28;20688;-73
2023/12/17 11:11:47;;;;;;;18.85;12.30;;;;;;;;;;5028410;28;20458;-74
2023/12/17 11:14:13;;;;;;;18.42;12.43;;;;;;;;;;4997602;28;20209;-75
2023/12/17 11:16:41;;;;;;;21.35;13.25;;;;;;;;;;5000797;28;20671;-73
2023/12/17 11:19:06;;;;;;;21.33;13.30;;;;;;;;;;4992430;28;20801;-75
2023/12/17 11:21:34;;;;;;;20.42;12.55;;;;;;;;;;5018850;28;20178;-73
2023/12/17 11:24:00;;;;;;;21.98;13.95;;;;;;;;;;5014529;28;20203;-73
2023/12/17 11:26:25;;;;;;;21.17;12.82;;;;;;;;;;4980597;28;20257;-73
2023/12/17 11:28:52;;;;;;;19.05;11.85;;;;;;;;;;4991136;28;20284;-76
2023/12/17 11:31:18;;;;;;;21.52;12.48;;;;;;;;;;4974002;28;20640;-74
2023/12/17 11:33:44;;;;;;;21.63;13.65;;;;;;;;;;4973213;28;20203;-73
2023/12/17 11:36:11;;;;;;;21.70;12.25;;;;;;;;;;4986568;28;20296;-74
2023/12/17 11:38:37;;;;;;;20.55;12.90;;;;;;;;;;4971267;28;20190;-73
2023/12/17 11:41:04;;;;;;;21.02;12.82;;;;;;;;;;4982001;28;20209;-73
2023/12/17 11:43:30;;;;;;;18.17;11.88;;;;;;;;;;5015588;28;20696;-73
2023/12/17 11:45:56;;;;;;;16.63;11.82;;;;;;;;;;5001214;28;20588;-73
2023/12/17 11:48:22;;;;;;;18.50;11.48;;;;;;;;;;5020531;28;20201;-73
2023/12/17 11:50:49;;;;;;;16.05;10.57;;;;;;;;;;5003561;28;20189;-73
2023/12/17 11:53:19;;;;;;;16.23;10.55;;;;;;;;;;5027960;28;20193;-73
2023/12/17 11:55:52;;;;;;;16.40;10.85;;;;;;;;;;5022838;28;20210;-73
2023/12/17 11:58:20;;;;;;;18.30;10.48;;;;;;;;;;5006336;28;20671;-73
2023/12/17 12:01:06;;;;;;;17.70;11.30;;;;;;;;;;5008215;28;20179;-73
2023/12/17 12:03:32;;;;;;;17.08;10.93;;;;;;;;;;4983104;28;20233;-73
2023/12/17 12:06:06;;;;;;;16.65;10.27;;;;;;;;;;5002525;28;20634;-73
2023/12/17 12:08:36;;;;;;;17.30;10.27;;;;;;;;;;4993903;28;20665;-73
2023/12/17 12:11:02;;;;;;;17.38;10.00;;;;;;;;;;5017943;28;20194;-75
2023/12/17 12:13:29;;;;;;;13.30;9.55;;;;;;;;;;4981535;28;20201;-74
2023/12/17 12:15:58;;;;;;;17.00;10.57;;;;;;;;;;4976378;28;20701;-74
2023/12/17 12:18:24;;;;;;;17.17;11.05;;;;;;;;;;4992712;28;20705;-74
2023/12/17 12:20:50;;;;;;;15.20;10.00;;;;;;;;;;4976391;28;20180;-74
2023/12/17 12:23:16;;;;;;;15.75;10.32;;;;;;;;;;5002935;28;20198;-73
2023/12/17 12:25:42;;;;;;;14.05;9.50;;;;;;;;;;5001847;28;20746;-73
2023/12/17 12:28:20;;;;;;;14.80;10.45;;;;;;;;;;5010576;28;20193;-74
2023/12/17 12:30:47;;;;;;;14.38;9.65;;;;;;;;;;5011831;28;20182;-73
2023/12/17 12:33:18;;;;;;;16.33;10.65;;;;;;;;;;4990889;28;20674;-73
2023/12/17 12:35:45;;;;;;;16.33;11.48;;;;;;;;;;4975359;28;20562;-74
2023/12/17 12:38:26;;;;;;;18.90;11.30;;;;;;;;;;4957389;28;20281;-74
2023/12/17 12:40:54;;;;;;;16.88;11.00;;;;;;;;;;4993504;28;20198;-73
2023/12/17 12:43:21;;;;;;;16.75;11.18;;;;;;;;;;4994397;28;20196;-75
2023/12/17 12:45:48;;;;;;;17.05;10.32;;;;;;;;;;4986372;28;20215;-74
2023/12/17 12:48:23;;;;;;;15.82;10.70;;;;;;;;;;4990778;28;20260;-75
2023/12/17 12:50:50;;;;;;;15.50;10.57;;;;;;;;;;5021139;28;20194;-73
2023/12/17 12:53:18;;;;;;;18.48;11.25;;;;;;;;;;5020392;28;20459;-73
2023/12/17 12:55:43;;;;;;;15.98;10.52;;;;;;;;;;4987494;28;20230;-73
2023/12/17 12:58:08;;;;;;;17.88;11.52;;;;;;;;;;5026284;28;20660;-75
2023/12/17 13:00:34;;;;;;;16.58;10.73;;;;;;;;;;5028198;28;20665;-73
2023/12/17 13:02:59;;;;;;;16.60;10.55;;;;;;;;;;5010031;28;20310;-74
2023/12/17 13:05:25;;;;;;;20.08;10.98;;;;;;;;;;5013468;28;20240;-73
2023/12/17 13:07:51;;;;;;;19.13;12.18;;;;;;;;;;5001917;28;20190;-73
2023/12/17 13:10:17;;;;;;;16.80;11.40;;;;;;;;;;5024516;28;20201;-73
2023/12/17 13:12:42;;;;;;;18.67;11.68;;;;;;;;;;5028609;28;20319;-74
2023/12/17 13:15:11;;;;;;;18.73;11.85;;;;;;;;;;5031009;28;20217;-73
2023/12/17 13:17:37;;;;;;;15.85;10.82;;;;;;;;;;5024077;28;20191;-73
2023/12/17 13:20:03;;;;;;;17.67;11.23;;;;;;;;;;5018847;28;20205;-74
2023/12/17 13:22:29;;;;;;;19.25;12.07;;;;;;;;;;5026465;28;20329;-73
2023/12/17 13:24:54;;;;;;;18.42;11.68;;;;;;;;;;4995802;28;20198;-73
2023/12/17 13:27:20;;;;;;;20.77;12.35;;;;;;;;;;5010400;28;20234;-73
2023/12/17 13:29:45;;;;;;;17.70;12.00;;;;;;;;;;5002036;28;20192;-73
2023/12/17 13:32:11;;;;;;;20.90;13.30;;;;;;;;;;5012495;28;20197;-74
2023/12/17 13:34:37;;;;;;;18.65;12.80;;;;;;;;;;5009913;28;20244;-72
2023/12/17 13:37:02;;;;;;;19.88;12.35;;;;;;;;;;5017038;28;20198;-73
2023/12/17 13:39:28;;;;;;;21.10;11.75;;;;;;;;;;5008955;28;20293;-73
2023/12/17 13:41:53;;;;;;;19.65;12.45;;;;;;;;;;5022333;28;20249;-73
2023/12/17 13:44:19;;;;;;;22.42;12.00;;;;;;;;;;5007893;28;20212;-73
2023/12/17 13:46:44;;;;;;;19.48;12.88;;;;;;;;;;5001398;28;20264;-74
2023/12/17 13:49:10;;;;;;;23.00;13.88;;;;;;;;;;5012514;28;20647;-73
2023/12/17 13:51:36;;;;;;;23.70;12.93;;;;;;;;;;5021794;28;20209;-73
2023/12/17 13:54:01;;;;;;;23.60;12.95;;;;;;;;;;5026427;28;20190;-73
2023/12/17 13:56:27;;;;;;;26.17;13.75;;;;;;;;;;4997412;28;20191;-73
2023/12/17 13:58:53;;;;;;;25.88;14.25;;;;;;;;;;5026807;28;20268;-73
2023/12/17 14:01:21;;;;;;;23.42;12.57;;;;;;;;;;5027818;28;20392;-73
2023/12/17 14:03:49;;;;;;;27.13;13.95;;;;;;;;;;5030306;28;20538;-73
2023/12/17 14:06:18;;;;;;;27.42;14.00;;;;;;;;;;5023563;28;20265;-73
2023/12/17 14:08:46;;;;;;;22.92;13.27;;;;;;;;;;4987327;28;20405;-73
2023/12/17 14:11:12;;;;;;;23.42;13.57;;;;;;;;;;5018921;28;20197;-72
2023/12/17 14:13:37;;;;;;;29.45;14.45;;;;;;;;;;5030333;28;20191;-73
2023/12/17 14:16:03;;;;;;;25.65;14.00;;;;;;;;;;5010626;28;20229;-73
2023/12/17 14:18:28;;;;;;;25.63;14.43;;;;;;;;;;4987195;28;20215;-73